Time;durP1;ratioP1;P1;durP2;ratioP2;P2;SDS_P1;SDS_P2;PMS_P1;PMS_P2;Temp;Humidity;BMP_temperature;BMP_pressure;BME280_temperature;BME280_humidity;BME280_pressure;Samples;Min_cycle;Max_cycle;Signal;HPM_P1;HPM_P2
2023/01/30 00:00:14;;;;;;;42.25;22.92;;;4.50;99.90;;;;;;4097647;28;20410;-68
2023/01/30 00:02:15;;;;;;;42.63;23.25;;;4.50;99.90;;;;;;4095995;28;20128;-68
2023/01/30 00:04:15;;;;;;;46.80;24.45;;;4.50;99.90;;;;;;4095720;28;20035;-68
2023/01/30 00:06:16;;;;;;;38.78;21.85;;;4.60;99.90;;;;;;4099426;28;20031;-68
2023/01/30 00:08:17;;;;;;;46.42;24.33;;;4.60;99.90;;;;;;4096212;28;20142;-68
2023/01/30 00:10:17;;;;;;;42.47;22.50;;;4.60;99.90;;;;;;4095697;28;20449;-68
2023/01/30 00:12:18;;;;;;;37.28;21.48;;;4.60;99.90;;;;;;4096052;28;20043;-68
2023/01/30 00:14:18;;;;;;;42.45;23.10;;;4.70;99.90;;;;;;4096763;28;20047;-68
2023/01/30 00:16:19;;;;;;;39.13;21.95;;;4.70;99.90;;;;;;4097489;28;20063;-68
2023/01/30 00:18:19;;;;;;;43.47;22.25;;;4.70;99.90;;;;;;4096300;28;20047;-68
2023/01/30 00:20:20;;;;;;;44.88;22.63;;;4.70;99.90;;;;;;4094991;29;20043;-68
2023/01/30 00:22:21;;;;;;;38.47;21.70;;;4.70;99.90;;;;;;4098179;28;20047;-68
2023/01/30 00:24:22;;;;;;;44.65;23.67;;;4.70;99.90;;;;;;4098109;28;20031;-68
2023/01/30 00:26:22;;;;;;;41.10;22.52;;;4.70;99.90;;;;;;4096952;28;20517;-68
2023/01/30 00:28:23;;;;;;;41.13;21.70;;;4.70;99.90;;;;;;4099245;28;20031;-68
2023/01/30 00:30:23;;;;;;;40.80;22.55;;;4.80;99.90;;;;;;4097620;28;20035;-68
2023/01/30 00:32:25;;;;;;;43.63;23.65;;;4.80;99.90;;;;;;4079663;29;20055;-68
2023/01/30 00:34:26;;;;;;;39.88;22.80;;;4.80;99.90;;;;;;4094819;28;25513;-68
2023/01/30 00:36:26;;;;;;;43.25;23.55;;;4.80;99.90;;;;;;4093250;28;20039;-68
2023/01/30 00:38:27;;;;;;;38.10;22.23;;;4.80;99.90;;;;;;4097650;28;20035;-68
2023/01/30 00:40:28;;;;;;;44.72;23.70;;;4.90;99.90;;;;;;4094593;28;20047;-68
2023/01/30 00:47:08;;;;;;;35.28;19.88;;;4.90;99.90;;;;;;4095954;28;20031;-69
2023/01/30 00:49:08;;;;;;;38.88;22.17;;;4.90;99.90;;;;;;4097595;28;20151;-68
2023/01/30 00:51:09;;;;;;;43.13;22.35;;;5.00;99.90;;;;;;4096484;28;20089;-68
2023/01/30 00:53:11;;;;;;;38.42;21.52;;;5.00;99.90;;;;;;4096341;28;20035;-68
2023/01/30 00:55:12;;;;;;;38.25;20.92;;;5.00;99.90;;;;;;4094584;28;20081;-68
2023/01/30 00:57:13;;;;;;;38.35;21.85;;;5.00;99.90;;;;;;4098034;28;20027;-68
2023/01/30 00:59:13;;;;;;;38.67;22.17;;;5.00;99.90;;;;;;4099791;28;20042;-68
2023/01/30 01:01:14;;;;;;;38.80;21.73;;;5.00;99.90;;;;;;4095014;28;20031;-68
2023/01/30 01:03:15;;;;;;;34.63;19.35;;;5.00;99.90;;;;;;4095290;28;20035;-68
2023/01/30 01:05:16;;;;;;;39.67;21.88;;;5.00;99.90;;;;;;4095411;28;20027;-68
2023/01/30 01:07:16;;;;;;;33.53;20.55;;;5.00;99.90;;;;;;4097254;28;20038;-68
2023/01/30 01:09:17;;;;;;;35.55;20.50;;;5.10;99.90;;;;;;4095164;28;20125;-68
2023/01/30 01:11:23;;;;;;;36.95;21.10;;;5.00;99.90;;;;;;4094139;28;20793;-68
2023/01/30 01:13:23;;;;;;;37.90;21.25;;;5.00;99.90;;;;;;4096630;28;20050;-68
2023/01/30 01:15:25;;;;;;;39.22;22.05;;;5.10;99.90;;;;;;4094381;28;20069;-68
2023/01/30 01:17:27;;;;;;;34.42;20.65;;;5.10;99.90;;;;;;4096948;28;20077;-68
2023/01/30 01:19:27;;;;;;;43.70;21.85;;;5.10;99.90;;;;;;4096068;28;20107;-68
2023/01/30 01:21:28;;;;;;;36.50;22.17;;;5.10;99.90;;;;;;4097299;28;20049;-68
2023/01/30 01:23:29;;;;;;;43.33;20.70;;;5.10;99.90;;;;;;4098272;28;20398;-68
2023/01/30 01:25:29;;;;;;;36.83;21.38;;;5.10;99.90;;;;;;4095855;28;20109;-67
2023/01/30 01:27:30;;;;;;;34.40;19.67;;;5.20;99.90;;;;;;4094078;28;20038;-69
2023/01/30 01:29:31;;;;;;;33.08;20.15;;;5.20;99.90;;;;;;4099053;28;20038;-68
2023/01/30 01:31:31;;;;;;;39.85;20.98;;;5.20;99.90;;;;;;4097805;28;20070;-68
2023/01/30 01:33:32;;;;;;;39.75;21.63;;;5.20;99.90;;;;;;4094969;28;20118;-68
2023/01/30 01:35:32;;;;;;;34.95;20.85;;;5.20;99.90;;;;;;4094287;28;20035;-68
2023/01/30 01:37:33;;;;;;;36.00;21.25;;;5.20;99.90;;;;;;4094415;28;20070;-68
2023/01/30 01:41:53;;;;;;;34.88;20.50;;;5.30;99.90;;;;;;4093342;28;20032;-68
2023/01/30 01:44:00;;;;;;;41.00;21.83;;;5.20;99.90;;;;;;4094819;28;20114;-68
2023/01/30 01:46:19;;;;;;;38.38;20.55;;;5.30;99.90;;;;;;4094067;28;20039;-67
2023/01/30 01:48:27;;;;;;;35.15;20.73;;;5.30;99.90;;;;;;4100627;28;20572;-68
2023/01/30 01:50:41;;;;;;;35.38;21.63;;;5.30;99.90;;;;;;4096140;28;20043;-68
2023/01/30 01:52:42;;;;;;;35.15;19.58;;;5.40;99.90;;;;;;4093650;28;20149;-67
2023/01/30 01:54:55;;;;;;;38.28;20.02;;;5.40;99.90;;;;;;4094815;28;20043;-68
2023/01/30 01:56:58;;;;;;;31.77;19.35;;;5.40;99.90;;;;;;4098132;28;20055;-68
2023/01/30 01:59:03;;;;;;;;;;;5.40;99.90;;;;;;4098578;28;20118;-68
2023/01/30 02:01:05;;;;;;;39.33;20.55;;;5.40;99.90;;;;;;4098224;28;19918;-68
2023/01/30 02:03:11;;;;;;;35.78;19.85;;;5.40;99.90;;;;;;4097672;28;20122;-68
2023/01/30 02:05:15;;;;;;;32.53;18.83;;;5.40;99.90;;;;;;4092839;28;20051;-68
2023/01/30 02:07:19;;;;;;;35.08;20.17;;;5.50;99.90;;;;;;4082603;28;20036;-68
2023/01/30 02:09:19;;;;;;;33.97;19.80;;;5.50;99.90;;;;;;4098674;28;20058;-67
2023/01/30 02:11:45;;;;;;;36.25;19.83;;;5.50;99.90;;;;;;4095787;28;20031;-68
2023/01/30 02:13:47;;;;;;;35.25;20.08;;;5.50;99.90;;;;;;4098560;28;20059;-68
2023/01/30 02:15:49;;;;;;;32.60;20.10;;;5.50;99.90;;;;;;4095623;28;20826;-68
2023/01/30 02:17:49;;;;;;;37.65;20.70;;;5.50;99.90;;;;;;4097531;28;20505;-68
2023/01/30 02:20:20;;;;;;;35.75;20.67;;;5.50;99.90;;;;;;4097283;28;20119;-68
2023/01/30 02:22:38;;;;;;;36.88;20.20;;;5.50;99.90;;;;;;4093294;28;20130;-68
2023/01/30 02:25:10;;;;;;;33.38;20.15;;;5.60;99.90;;;;;;4094212;28;20039;-68
2023/01/30 02:27:40;;;;;;;37.83;19.83;;;5.60;99.90;;;;;;4097932;28;20038;-68
2023/01/30 02:30:06;;;;;;;40.50;19.80;;;5.60;99.90;;;;;;4095347;28;20036;-68
2023/01/30 02:32:51;;;;;;;35.47;18.92;;;5.60;99.90;;;;;;4098494;28;20031;-68
2023/01/30 02:34:59;;;;;;;31.58;18.63;;;5.60;99.90;;;;;;4092562;28;20031;-68
2023/01/30 02:37:33;;;;;;;33.17;19.23;;;5.60;99.90;;;;;;4094737;28;20046;-69
2023/01/30 02:39:54;;;;;;;36.60;19.17;;;5.60;99.90;;;;;;4096161;28;20406;-68
2023/01/30 02:42:10;;;;;;;42.35;22.40;;;5.60;99.90;;;;;;4096208;28;20125;-68
2023/01/30 02:44:13;;;;;;;34.45;18.75;;;5.60;99.90;;;;;;4091879;28;20042;-68
2023/01/30 02:46:18;;;;;;;34.65;19.60;;;5.70;99.90;;;;;;4095027;28;20113;-68
2023/01/30 02:48:34;;;;;;;34.28;19.08;;;5.60;99.90;;;;;;4096001;28;20070;-68
2023/01/30 02:50:59;;;;;;;31.25;18.40;;;5.60;99.90;;;;;;4097959;28;20051;-67
2023/01/30 02:53:02;;;;;;;32.08;19.00;;;5.70;99.90;;;;;;4095019;28;20040;-69
2023/01/30 02:55:08;;;;;;;35.10;19.88;;;5.70;99.90;;;;;;4092532;28;20032;-69
2023/01/30 02:57:23;;;;;;;32.45;18.58;;;5.70;99.90;;;;;;4094438;28;20634;-68
2023/01/30 02:59:29;;;;;;;34.03;19.42;;;5.70;99.90;;;;;;4096763;28;20046;-68
2023/01/30 03:01:48;;;;;;;36.40;18.92;;;5.70;99.90;;;;;;4093215;28;20053;-68
2023/01/30 03:04:00;;;;;;;33.55;18.38;;;5.80;99.90;;;;;;4091016;28;20056;-68
2023/01/30 03:06:14;;;;;;;35.92;19.88;;;5.80;99.90;;;;;;4087141;28;20090;-68
2023/01/30 03:08:33;;;;;;;36.85;19.67;;;5.80;99.90;;;;;;4096225;28;20043;-68
2023/01/30 03:11:02;;;;;;;37.58;19.42;;;5.80;99.90;;;;;;4098570;28;20039;-68
2023/01/30 03:13:09;;;;;;;28.52;17.30;;;5.80;99.90;;;;;;4078887;29;20062;-68
2023/01/30 03:15:16;;;;;;;35.15;19.35;;;5.80;99.90;;;;;;4097694;28;20669;-69
2023/01/30 03:17:20;;;;;;;32.28;18.98;;;5.80;99.90;;;;;;4095188;28;20035;-68
2023/01/30 03:19:21;;;;;;;33.83;19.10;;;5.80;99.90;;;;;;4096376;28;20094;-68
2023/01/30 03:21:22;;;;;;;33.63;18.75;;;5.80;99.90;;;;;;4094702;28;20079;-68
2023/01/30 03:23:22;;;;;;;36.00;18.52;;;5.80;99.90;;;;;;4096451;28;20040;-68
2023/01/30 03:25:27;;;;;;;35.15;20.30;;;5.80;99.90;;;;;;4097373;28;20085;-68
2023/01/30 03:27:28;;;;;;;37.65;21.45;;;5.80;99.90;;;;;;4094958;28;20027;-68
2023/01/30 03:29:28;;;;;;;34.47;20.05;;;5.80;99.90;;;;;;4096416;28;20061;-68
2023/01/30 03:31:29;;;;;;;37.20;20.95;;;5.80;99.90;;;;;;4096771;28;20110;-68
2023/01/30 03:33:30;;;;;;;36.85;17.85;;;5.90;99.90;;;;;;4094849;28;20399;-67
2023/01/30 03:35:30;;;;;;;37.63;19.23;;;5.90;99.90;;;;;;4096263;28;20206;-68
2023/01/30 03:37:31;;;;;;;36.40;19.63;;;5.80;99.90;;;;;;4095667;28;20039;-68
2023/01/30 03:39:31;;;;;;;38.65;20.85;;;5.90;99.90;;;;;;4097354;28;20035;-68
2023/01/30 03:41:32;;;;;;;37.05;20.50;;;5.90;99.90;;;;;;4093859;28;20508;-68
2023/01/30 03:43:33;;;;;;;32.67;18.17;;;5.90;99.90;;;;;;4095640;28;20110;-68
2023/01/30 03:45:33;;;;;;;38.00;19.77;;;5.90;99.90;;;;;;4096881;28;20050;-68
2023/01/30 03:47:34;;;;;;;36.78;19.75;;;5.90;99.90;;;;;;4095046;28;20059;-68
2023/01/30 03:49:34;;;;;;;32.58;18.42;;;5.90;99.90;;;;;;4096396;28;20558;-68
2023/01/30 03:51:35;;;;;;;30.90;18.50;;;5.90;99.90;;;;;;4095691;28;20028;-68
2023/01/30 03:53:36;;;;;;;29.45;18.33;;;6.00;99.90;;;;;;4097835;28;20035;-68
2023/01/30 03:55:36;;;;;;;36.03;18.27;;;5.90;99.90;;;;;;4093715;28;20035;-68
2023/01/30 03:57:37;;;;;;;39.42;19.77;;;5.90;99.90;;;;;;4093868;28;20039;-68
2023/01/30 03:59:37;;;;;;;33.78;18.98;;;5.90;99.90;;;;;;4096189;28;20081;-68
2023/01/30 04:01:38;;;;;;;32.25;18.92;;;6.00;99.90;;;;;;4095332;28;20510;-68
2023/01/30 04:03:38;;;;;;;32.45;17.80;;;6.00;99.90;;;;;;4097721;28;20035;-68
2023/01/30 04:05:41;;;;;;;34.78;18.52;;;6.00;99.90;;;;;;4092875;28;20653;-68
2023/01/30 04:07:42;;;;;;;29.20;16.05;;;6.00;99.90;;;;;;4094716;28;20033;-69
2023/01/30 04:09:43;;;;;;;31.30;17.65;;;6.00;99.90;;;;;;4095505;28;20130;-68
2023/01/30 04:11:43;;;;;;;34.15;17.83;;;6.00;99.90;;;;;;4095576;28;20039;-69
2023/01/30 04:13:44;;;;;;;35.50;18.90;;;6.00;99.90;;;;;;4094700;28;20042;-68
2023/01/30 04:15:44;;;;;;;27.52;16.77;;;6.00;99.90;;;;;;4095232;28;20126;-68
2023/01/30 04:17:46;;;;;;;32.38;18.35;;;6.00;99.90;;;;;;4095604;28;20043;-68
2023/01/30 04:19:47;;;;;;;29.52;17.38;;;6.00;99.90;;;;;;4094669;28;20035;-68
2023/01/30 04:21:47;;;;;;;32.28;16.75;;;6.00;99.90;;;;;;4093831;28;20039;-69
2023/01/30 04:23:48;;;;;;;25.10;15.45;;;6.00;99.90;;;;;;4096340;28;20035;-69
2023/01/30 04:25:49;;;;;;;28.70;16.50;;;6.00;99.90;;;;;;4095713;28;20049;-68
2023/01/30 04:27:49;;;;;;;28.33;16.60;;;6.00;99.90;;;;;;4096594;28;20494;-68
2023/01/30 04:29:50;;;;;;;29.33;18.00;;;6.00;99.90;;;;;;4098949;28;20122;-68
2023/01/30 04:31:51;;;;;;;31.73;16.52;;;6.00;99.90;;;;;;4096474;28;22280;-68
2023/01/30 04:33:51;;;;;;;30.10;16.38;;;6.00;99.90;;;;;;4094762;28;20051;-68
2023/01/30 04:35:56;;;;;;;28.95;15.90;;;6.00;99.90;;;;;;4094499;28;20043;-68
2023/01/30 04:37:57;;;;;;;30.10;17.40;;;6.00;99.90;;;;;;4094782;28;20035;-68
2023/01/30 04:39:58;;;;;;;28.52;16.75;;;6.00;99.90;;;;;;4095227;28;20061;-68
2023/01/30 04:41:58;;;;;;;25.15;15.05;;;6.00;99.90;;;;;;4093316;28;20106;-69
2023/01/30 04:43:59;;;;;;;31.25;16.63;;;6.00;99.90;;;;;;4096536;28;20035;-68
2023/01/30 04:45:59;;;;;;;28.55;15.10;;;6.00;99.90;;;;;;4092467;28;20071;-68
2023/01/30 04:48:00;;;;;;;25.40;15.70;;;6.10;99.90;;;;;;4082370;28;20028;-68
2023/01/30 04:50:00;;;;;;;29.88;15.70;;;6.00;99.90;;;;;;4095054;28;22585;-68
2023/01/30 04:52:01;;;;;;;27.52;16.27;;;6.00;99.90;;;;;;4092599;29;20466;-68
2023/01/30 04:54:02;;;;;;;29.05;15.52;;;6.10;99.90;;;;;;4093155;28;20039;-69
2023/01/30 04:56:03;;;;;;;27.40;17.13;;;6.10;99.90;;;;;;4092463;28;20039;-67
2023/01/30 04:58:03;;;;;;;26.65;15.25;;;6.10;99.90;;;;;;4078802;29;20035;-69
2023/01/30 05:00:05;;;;;;;25.42;15.50;;;6.00;99.90;;;;;;4097210;28;20391;-69
2023/01/30 05:02:05;;;;;;;22.17;14.48;;;6.10;99.90;;;;;;4092722;28;20046;-68
2023/01/30 05:04:06;;;;;;;24.90;15.20;;;6.10;99.90;;;;;;4094330;28;20031;-68
2023/01/30 05:06:07;;;;;;;24.33;14.32;;;6.10;99.90;;;;;;4092500;28;20031;-68
2023/01/30 05:08:08;;;;;;;24.70;15.10;;;6.10;99.90;;;;;;4096550;28;20105;-68
2023/01/30 05:10:09;;;;;;;23.55;14.90;;;6.10;99.90;;;;;;4093388;28;20046;-68
2023/01/30 05:12:09;;;;;;;22.35;13.48;;;6.10;99.90;;;;;;4092003;28;20039;-68
2023/01/30 05:14:10;;;;;;;26.13;13.85;;;6.10;99.90;;;;;;4089235;28;20074;-68
2023/01/30 05:16:12;;;;;;;22.50;14.23;;;6.10;99.90;;;;;;4093713;28;20483;-69
2023/01/30 05:18:12;;;;;;;22.30;15.03;;;6.10;99.90;;;;;;4088491;28;20495;-68
2023/01/30 05:20:13;;;;;;;26.92;14.38;;;6.10;99.90;;;;;;4085197;28;20283;-68
2023/01/30 05:22:14;;;;;;;21.35;14.18;;;6.20;99.90;;;;;;4088810;28;20039;-68
2023/01/30 05:24:15;;;;;;;31.02;16.77;;;6.20;99.90;;;;;;4094164;28;20035;-68
2023/01/30 05:26:15;;;;;;;23.85;14.35;;;6.20;99.90;;;;;;4088336;28;20038;-68
2023/01/30 05:28:16;;;;;;;27.05;14.93;;;6.20;99.90;;;;;;4092650;28;20070;-68
2023/01/30 05:30:17;;;;;;;22.15;14.48;;;6.20;99.90;;;;;;4088796;28;20479;-67
2023/01/30 05:32:18;;;;;;;22.20;14.13;;;6.20;99.90;;;;;;4093809;28;20474;-68
2023/01/30 05:34:19;;;;;;;23.17;13.93;;;6.20;99.90;;;;;;4094228;28;20570;-68
2023/01/30 05:36:21;;;;;;;23.60;13.35;;;6.20;99.90;;;;;;4089158;28;20063;-67
2023/01/30 05:38:22;;;;;;;;;;;6.30;99.90;;;;;;4084898;28;20082;-68
2023/01/30 05:40:23;;;;;;;24.20;13.20;;;6.20;99.90;;;;;;4087036;28;19969;-68
2023/01/30 05:42:23;;;;;;;21.80;13.50;;;6.30;99.90;;;;;;4080062;28;20057;-68
2023/01/30 05:44:24;;;;;;;20.65;12.82;;;6.30;99.90;;;;;;4093310;28;20442;-68
2023/01/30 05:46:25;;;;;;;22.92;13.30;;;6.30;99.90;;;;;;4092573;28;20040;-68
2023/01/30 05:48:25;;;;;;;19.70;12.57;;;6.40;99.90;;;;;;4095664;28;20031;-68
2023/01/30 05:50:26;;;;;;;20.85;12.20;;;6.40;99.90;;;;;;4093613;28;20093;-68
2023/01/30 05:52:26;;;;;;;18.55;12.60;;;6.40;99.90;;;;;;4094921;28;20122;-68
2023/01/30 05:54:27;;;;;;;18.20;11.80;;;6.40;99.90;;;;;;4094289;28;20039;-68
2023/01/30 05:56:32;;;;;;;18.02;11.98;;;6.40;99.90;;;;;;4092822;28;20043;-68
2023/01/30 05:58:32;;;;;;;18.15;11.30;;;6.40;99.90;;;;;;4094656;28;20032;-69
2023/01/30 06:00:33;;;;;;;15.75;11.05;;;6.50;99.90;;;;;;4094434;28;20082;-68
2023/01/30 06:02:33;;;;;;;18.63;11.30;;;6.50;99.90;;;;;;4094963;28;20075;-69
2023/01/30 06:04:34;;;;;;;15.50;10.40;;;6.50;99.90;;;;;;4090978;28;20052;-68
2023/01/30 06:06:35;;;;;;;18.05;11.20;;;6.50;99.90;;;;;;4087771;28;20472;-68
2023/01/30 06:08:35;;;;;;;18.63;11.35;;;6.60;99.90;;;;;;4090328;28;20449;-68
2023/01/30 06:10:36;;;;;;;20.15;12.02;;;6.60;99.90;;;;;;4088979;28;20956;-69
2023/01/30 06:12:36;;;;;;;18.35;10.48;;;6.60;99.90;;;;;;4073112;29;20043;-68
2023/01/30 06:14:37;;;;;;;18.00;11.23;;;6.60;99.90;;;;;;4078140;28;20642;-68
2023/01/30 06:16:38;;;;;;;17.17;10.52;;;6.60;99.90;;;;;;4089961;28;20035;-69
2023/01/30 06:18:39;;;;;;;18.50;11.40;;;6.70;99.90;;;;;;4090106;28;20114;-68
2023/01/30 06:20:39;;;;;;;18.20;10.95;;;6.70;99.90;;;;;;4087227;28;20097;-69
2023/01/30 06:22:40;;;;;;;13.63;9.63;;;6.70;99.90;;;;;;4087891;28;20071;-68
2023/01/30 06:24:40;;;;;;;18.98;10.77;;;6.70;99.90;;;;;;4087927;28;20079;-69
2023/01/30 06:26:41;;;;;;;18.70;10.63;;;6.80;99.90;;;;;;4084653;28;20068;-68
2023/01/30 06:28:41;;;;;;;19.10;10.57;;;6.80;99.90;;;;;;4086267;28;20043;-69
2023/01/30 06:30:42;;;;;;;16.45;10.88;;;6.80;99.90;;;;;;4087062;28;20039;-66
2023/01/30 06:32:43;;;;;;;17.95;10.02;;;6.80;99.90;;;;;;4089578;28;20094;-69
2023/01/30 06:34:43;;;;;;;19.05;10.77;;;6.80;99.90;;;;;;4090527;28;20032;-68
2023/01/30 06:36:44;;;;;;;16.10;10.27;;;6.80;99.90;;;;;;4089184;28;20086;-69
2023/01/30 06:38:44;;;;;;;14.90;10.23;;;6.90;99.90;;;;;;4088904;28;20584;-67
2023/01/30 06:40:48;;;;;;;16.85;10.38;;;6.90;99.90;;;;;;4089284;28;20443;-69
2023/01/30 06:42:49;;;;;;;16.50;10.35;;;6.90;99.90;;;;;;4091646;28;20090;-69
2023/01/30 06:44:49;;;;;;;16.08;10.43;;;6.90;99.90;;;;;;4092335;28;20031;-69
2023/01/30 06:46:51;;;;;;;16.23;9.43;;;6.90;99.90;;;;;;4093341;28;20158;-68
2023/01/30 06:48:52;;;;;;;16.38;10.68;;;6.90;99.90;;;;;;4092457;28;20047;-68
2023/01/30 06:50:52;;;;;;;19.30;10.85;;;7.00;99.90;;;;;;4093049;28;20043;-68
2023/01/30 06:52:54;;;;;;;19.73;10.48;;;7.00;99.90;;;;;;4091961;28;20044;-68
2023/01/30 06:54:54;;;;;;;15.50;9.55;;;7.00;99.90;;;;;;4084988;28;20628;-68
2023/01/30 06:56:55;;;;;;;19.83;9.95;;;7.00;99.90;;;;;;4089246;28;20027;-69
2023/01/30 06:58:56;;;;;;;18.60;10.98;;;7.00;99.90;;;;;;4088233;28;20031;-68
2023/01/30 07:00:56;;;;;;;18.27;10.20;;;7.00;99.90;;;;;;4084994;28;20097;-68
2023/01/30 07:02:57;;;;;;;15.65;9.80;;;7.00;99.90;;;;;;4089619;28;20031;-69
2023/01/30 07:04:57;;;;;;;18.15;10.32;;;7.00;99.90;;;;;;4091116;28;20043;-68
2023/01/30 07:06:59;;;;;;;16.83;9.70;;;7.00;99.90;;;;;;4092337;28;20352;-69
2023/01/30 07:08:59;;;;;;;14.52;9.55;;;7.10;99.90;;;;;;4083418;28;20091;-68
2023/01/30 07:11:00;;;;;;;18.52;10.05;;;7.10;99.90;;;;;;4084941;28;20036;-68
2023/01/30 07:13:01;;;;;;;18.90;10.25;;;7.10;99.90;;;;;;4083975;28;20474;-68
2023/01/30 07:15:04;;;;;;;26.27;10.15;;;7.10;99.90;;;;;;4062024;29;20415;-70
2023/01/30 07:17:04;;;;;;;18.70;10.25;;;7.10;99.90;;;;;;4080556;28;20027;-69
2023/01/30 07:19:05;;;;;;;17.02;9.48;;;7.10;99.90;;;;;;4083636;28;20402;-69
2023/01/30 07:21:05;;;;;;;18.77;9.82;;;7.10;99.90;;;;;;4081007;28;20480;-68
2023/01/30 07:23:06;;;;;;;22.40;9.18;;;7.10;99.90;;;;;;4083885;28;20050;-69
2023/01/30 07:25:07;;;;;;;20.35;8.85;;;7.00;99.90;;;;;;4078580;28;20059;-69
2023/01/30 07:27:09;;;;;;;17.75;9.10;;;7.00;99.90;;;;;;4077953;28;20139;-67
2023/01/30 07:29:10;;;;;;;22.25;8.30;;;7.00;99.90;;;;;;4081986;28;20413;-69
2023/01/30 07:31:11;;;;;;;19.83;7.35;;;7.00;99.90;;;;;;4080723;28;20488;-68
2023/01/30 07:33:11;;;;;;;12.70;6.80;;;7.00;99.90;;;;;;4082654;28;20024;-68
2023/01/30 07:35:12;;;;;;;13.10;6.93;;;7.00;99.90;;;;;;4077615;28;20027;-68
2023/01/30 07:37:12;;;;;;;13.20;6.93;;;7.00;99.90;;;;;;4078465;28;20035;-68
2023/01/30 07:39:13;;;;;;;14.23;6.78;;;7.00;99.90;;;;;;4080212;28;20039;-69
2023/01/30 07:41:13;;;;;;;15.68;6.80;;;7.00;99.90;;;;;;4081485;28;20034;-68
2023/01/30 07:43:14;;;;;;;18.45;6.93;;;6.90;99.90;;;;;;4080974;28;20055;-68
2023/01/30 07:45:15;;;;;;;20.00;6.80;;;7.00;99.90;;;;;;4078547;28;20106;-68
2023/01/30 07:47:18;;;;;;;18.38;6.38;;;6.90;99.90;;;;;;4081478;28;20042;-69
2023/01/30 07:49:18;;;;;;;14.02;5.40;;;6.90;99.90;;;;;;4079239;28;20090;-68
2023/01/30 07:51:19;;;;;;;11.80;4.60;;;6.90;99.90;;;;;;4080049;28;20766;-69
2023/01/30 07:53:19;;;;;;;16.10;4.90;;;6.90;99.90;;;;;;4076566;28;20047;-68
2023/01/30 07:55:20;;;;;;;17.15;4.40;;;6.90;99.90;;;;;;4079825;28;20126;-69
2023/01/30 07:57:21;;;;;;;15.35;4.63;;;6.90;99.90;;;;;;4081048;28;20198;-68
2023/01/30 07:59:21;;;;;;;14.02;4.15;;;6.90;99.90;;;;;;4079166;28;20938;-68
2023/01/30 08:01:22;;;;;;;11.45;4.07;;;6.90;99.90;;;;;;4064454;28;20044;-68
2023/01/30 08:03:23;;;;;;;15.18;4.32;;;6.90;99.90;;;;;;4055918;29;20036;-68
2023/01/30 08:05:23;;;;;;;14.70;4.30;;;7.00;99.90;;;;;;4075307;29;20040;-68
2023/01/30 08:07:24;;;;;;;13.80;3.55;;;7.10;99.90;;;;;;4074911;29;20044;-68
2023/01/30 08:09:24;;;;;;;15.70;3.72;;;7.30;99.90;;;;;;4086176;28;20411;-68
2023/01/30 08:11:25;;;;;;;11.05;3.55;;;7.40;99.90;;;;;;4092410;28;20058;-69
2023/01/30 08:13:26;;;;;;;16.40;3.70;;;7.60;99.90;;;;;;4091670;28;20060;-68
2023/01/30 08:15:26;;;;;;;10.88;3.20;;;7.70;99.90;;;;;;4087045;28;20158;-68
2023/01/30 08:17:27;;;;;;;12.73;3.10;;;7.70;99.90;;;;;;4091761;28;20032;-68
2023/01/30 08:19:27;;;;;;;8.77;2.85;;;7.70;99.90;;;;;;4089880;28;20045;-68
2023/01/30 08:21:28;;;;;;;13.75;3.38;;;7.70;99.90;;;;;;4090634;28;20031;-68
2023/01/30 08:23:29;;;;;;;12.65;3.15;;;7.70;99.90;;;;;;4092363;28;20511;-69
2023/01/30 08:25:30;;;;;;;10.85;3.33;;;7.70;99.90;;;;;;4090354;28;20394;-68
2023/01/30 08:27:30;;;;;;;9.55;2.90;;;7.60;99.90;;;;;;4091768;28;20035;-68
2023/01/30 08:29:31;;;;;;;11.48;3.20;;;7.60;99.90;;;;;;4092174;28;20054;-69
2023/01/30 08:31:31;;;;;;;10.40;3.40;;;7.50;99.90;;;;;;4089735;28;20034;-68
2023/01/30 08:33:32;;;;;;;14.23;3.67;;;7.50;99.90;;;;;;4092795;28;20050;-68
2023/01/30 08:35:33;;;;;;;11.68;3.30;;;7.50;99.90;;;;;;4091616;28;20044;-69
2023/01/30 08:37:33;;;;;;;9.65;3.17;;;7.50;99.90;;;;;;4089763;28;20046;-68
2023/01/30 08:39:34;;;;;;;15.75;3.53;;;7.60;99.90;;;;;;4090437;28;20204;-69
2023/01/30 08:41:34;;;;;;;15.23;3.80;;;7.60;99.90;;;;;;4088675;28;20047;-69
2023/01/30 08:43:35;;;;;;;12.13;3.35;;;7.60;99.90;;;;;;4073651;28;20043;-69
2023/01/30 08:45:36;;;;;;;15.20;3.42;;;7.50;99.90;;;;;;4074024;29;20491;-68
2023/01/30 08:47:36;;;;;;;10.00;2.88;;;7.50;99.90;;;;;;4092079;28;20038;-68
2023/01/30 08:49:37;;;;;;;16.15;3.70;;;7.50;99.90;;;;;;4090396;28;20039;-69
2023/01/30 08:51:38;;;;;;;14.48;3.38;;;7.40;99.90;;;;;;4089737;28;20550;-69
2023/01/30 08:53:38;;;;;;;11.43;3.40;;;7.40;99.90;;;;;;4092509;28;20390;-69
2023/01/30 08:55:39;;;;;;;17.80;4.35;;;7.50;99.90;;;;;;4092995;28;20039;-68
2023/01/30 08:57:39;;;;;;;13.75;4.25;;;7.50;99.90;;;;;;4091373;28;20038;-69
2023/01/30 08:59:40;;;;;;;22.02;4.70;;;7.60;99.90;;;;;;4088921;28;20043;-69
2023/01/30 09:01:41;;;;;;;17.38;3.65;;;7.60;99.90;;;;;;4089388;28;20529;-68
2023/01/30 09:03:41;;;;;;;24.35;4.55;;;7.70;99.90;;;;;;4092230;28;20043;-69
2023/01/30 09:05:42;;;;;;;11.15;3.42;;;7.80;99.90;;;;;;4091145;28;20047;-68
2023/01/30 09:07:43;;;;;;;17.60;4.05;;;7.80;99.90;;;;;;4090260;28;20058;-68
2023/01/30 09:09:43;;;;;;;14.18;3.78;;;7.90;99.90;;;;;;4089835;28;20066;-69
2023/01/30 09:11:46;;;;;;;24.27;4.22;;;8.00;99.90;;;;;;4088802;28;20061;-69
2023/01/30 09:13:46;;;;;;;;;;;8.30;99.90;;;;;;4071601;29;20601;-68
2023/01/30 09:15:49;;;;;;;16.98;3.75;;;8.50;99.90;;;;;;4087930;28;19946;-69
2023/01/30 09:17:51;;;;;;;16.17;3.53;;;8.70;99.90;;;;;;4092282;28;20122;-69
2023/01/30 09:19:51;;;;;;;19.30;3.55;;;8.80;99.90;;;;;;4090577;28;20042;-68
2023/01/30 09:21:54;;;;;;;13.10;3.30;;;8.90;99.90;;;;;;4091590;28;20399;-69
2023/01/30 09:23:55;;;;;;;22.00;4.13;;;9.00;99.90;;;;;;4092051;28;20511;-68
2023/01/30 09:25:56;;;;;;;14.83;3.37;;;9.10;99.90;;;;;;4091514;28;20057;-69
2023/01/30 09:27:57;;;;;;;17.65;3.25;;;9.20;99.90;;;;;;4091686;28;20267;-69
2023/01/30 09:29:57;;;;;;;15.75;3.33;;;9.30;99.90;;;;;;4089457;28;20066;-69
2023/01/30 09:31:58;;;;;;;18.35;3.63;;;9.30;99.90;;;;;;4087867;28;20511;-69
2023/01/30 09:33:58;;;;;;;19.35;4.10;;;9.40;99.90;;;;;;4073159;29;20056;-69
2023/01/30 09:35:59;;;;;;;14.15;3.40;;;9.30;99.90;;;;;;4089871;28;20044;-69
2023/01/30 09:38:00;;;;;;;20.50;4.57;;;9.40;99.90;;;;;;4088194;28;20036;-69
2023/01/30 09:40:01;;;;;;;17.92;3.75;;;9.40;99.90;;;;;;4090488;28;20325;-69
2023/01/30 09:42:04;;;;;;;17.83;4.57;;;9.30;99.90;;;;;;4091079;28;20038;-69
2023/01/30 09:44:31;;;;;;;14.45;3.65;;;9.30;99.90;;;;;;4085250;28;20035;-69
2023/01/30 09:47:01;;;;;;;13.20;3.55;;;9.40;99.90;;;;;;4089225;28;21148;-69
2023/01/30 09:49:46;;;;;;;21.90;4.25;;;9.30;99.90;;;;;;4086707;28;20031;-69
2023/01/30 09:51:54;;;;;;;16.90;3.78;;;9.40;99.90;;;;;;4089644;28;20047;-69
2023/01/30 09:54:10;;;;;;;15.68;3.60;;;9.10;99.90;;;;;;4090593;28;20069;-69
2023/01/30 09:56:11;;;;;;;17.40;3.75;;;9.00;99.90;;;;;;4064463;28;20059;-69
2023/01/30 09:58:20;;;;;;;17.23;4.00;;;8.80;99.90;;;;;;4090244;28;20103;-69
2023/01/30 10:00:41;;;;;;;16.15;3.72;;;8.50;99.90;;;;;;4088341;28;20055;-69
2023/01/30 10:03:09;;;;;;;17.58;4.05;;;8.50;99.90;;;;;;4090856;28;20043;-68
2023/01/30 10:05:10;;;;;;;21.45;3.80;;;8.40;99.90;;;;;;4086979;28;20031;-69
2023/01/30 10:07:41;;;;;;;30.13;5.15;;;8.30;99.90;;;;;;4089622;28;20039;-68
2023/01/30 10:10:16;;;;;;;22.17;3.80;;;8.20;99.90;;;;;;4048269;29;20523;-69
2023/01/30 10:12:46;;;;;;;22.45;4.28;;;8.10;99.90;;;;;;4071414;28;20036;-69
2023/01/30 10:15:13;;;;;;;24.98;5.03;;;8.00;99.90;;;;;;4073057;29;20039;-69
2023/01/30 10:17:32;;;;;;;22.52;4.30;;;8.00;99.90;;;;;;4058743;29;20052;-69
2023/01/30 10:20:01;;;;;;;18.98;4.15;;;7.90;99.90;;;;;;4077468;29;20044;-69
2023/01/30 10:22:11;;;;;;;20.35;3.97;;;7.90;99.90;;;;;;4071336;28;20166;-68
2023/01/30 10:24:46;;;;;;;21.35;3.60;;;7.90;99.90;;;;;;4075680;29;20523;-69
2023/01/30 10:26:47;;;;;;;28.50;4.82;;;7.80;99.90;;;;;;4069363;29;20614;-69
2023/01/30 10:28:59;;;;;;;17.90;3.67;;;7.80;99.90;;;;;;4070690;29;20079;-68
2023/01/30 10:31:05;;;;;;;13.02;3.53;;;7.80;99.90;;;;;;4070394;29;20561;-68
2023/01/30 10:33:24;;;;;;;17.42;3.70;;;7.80;99.90;;;;;;4076595;28;20046;-69
2023/01/30 10:35:30;;;;;;;16.85;3.45;;;7.80;99.90;;;;;;4075416;28;20041;-68
2023/01/30 10:37:49;;;;;;;19.38;3.90;;;7.80;99.90;;;;;;4076159;29;20126;-68
2023/01/30 10:40:25;;;;;;;23.23;4.20;;;7.70;99.90;;;;;;4074643;29;20036;-68
2023/01/30 10:42:33;;;;;;;18.98;4.00;;;7.70;99.90;;;;;;4077265;29;20039;-68
2023/01/30 10:44:34;;;;;;;23.27;3.67;;;7.70;99.90;;;;;;4055072;29;20040;-68
2023/01/30 10:47:05;;;;;;;26.95;4.35;;;7.70;99.90;;;;;;4072638;29;20483;-68